sensor_id;sensor_type;location;lat;lon;timestamp;P1;durP1;ratioP1;P2;durP2;ratioP2
64560;SDS011;50960;46.838;16.838;2023-05-18T20:33:03;11.63;;;5.50;;
64560;SDS011;50960;46.838;16.838;2023-05-18T20:35:32;8.57;;;5.63;;
64560;SDS011;50960;46.838;16.838;2023-05-18T20:38:00;7.10;;;5.78;;
64560;SDS011;50960;46.838;16.838;2023-05-18T20:40:29;8.38;;;5.47;;
64560;SDS011;50960;46.838;16.838;2023-05-18T20:42:56;6.45;;;5.35;;
64560;SDS011;50960;46.838;16.838;2023-05-18T20:45:25;7.30;;;5.20;;
64560;SDS011;50960;46.838;16.838;2023-05-18T20:47:55;8.82;;;5.80;;
64560;SDS011;50960;46.838;16.838;2023-05-18T20:50:24;9.43;;;5.78;;
64560;SDS011;50960;46.838;16.838;2023-05-18T20:52:51;7.32;;;5.45;;
64560;SDS011;50960;46.838;16.838;2023-05-18T20:55:17;7.40;;;5.40;;
64560;SDS011;50960;46.838;16.838;2023-05-18T20:57:44;9.50;;;6.00;;
64560;SDS011;50960;46.838;16.838;2023-05-18T21:00:13;8.80;;;5.57;;
64560;SDS011;50960;46.838;16.838;2023-05-18T21:02:43;8.10;;;5.57;;
64560;SDS011;50960;46.838;16.838;2023-05-18T21:05:11;9.32;;;5.00;;
64560;SDS011;50960;46.838;16.838;2023-05-18T21:07:38;9.00;;;5.15;;
64560;SDS011;50960;46.838;16.838;2023-05-18T21:10:05;7.45;;;5.32;;
64560;SDS011;50960;46.838;16.838;2023-05-18T21:12:33;9.88;;;5.10;;
64560;SDS011;50960;46.838;16.838;2023-05-18T21:14:59;6.95;;;4.80;;
64560;SDS011;50960;46.838;16.838;2023-05-18T21:17:26;5.75;;;5.00;;
64560;SDS011;50960;46.838;16.838;2023-05-18T21:19:52;6.78;;;4.90;;
64560;SDS011;50960;46.838;16.838;2023-05-18T21:22:19;8.73;;;5.05;;
64560;SDS011;50960;46.838;16.838;2023-05-18T21:24:45;8.82;;;5.15;;
64560;SDS011;50960;46.838;16.838;2023-05-18T21:27:12;7.80;;;4.70;;
64560;SDS011;50960;46.838;16.838;2023-05-18T21:29:38;5.35;;;4.70;;
64560;SDS011;50960;46.838;16.838;2023-05-18T21:32:05;6.95;;;5.05;;
64560;SDS011;50960;46.838;16.838;2023-05-18T21:34:31;7.90;;;4.80;;
64560;SDS011;50960;46.838;16.838;2023-05-18T21:36:57;8.05;;;5.15;;
64560;SDS011;50960;46.838;16.838;2023-05-18T21:39:24;5.78;;;4.57;;
64560;SDS011;50960;46.838;16.838;2023-05-18T21:41:50;10.30;;;5.00;;
64560;SDS011;50960;46.838;16.838;2023-05-18T21:44:17;6.13;;;4.80;;
64560;SDS011;50960;46.838;16.838;2023-05-18T21:46:43;6.50;;;4.57;;
64560;SDS011;50960;46.838;16.838;2023-05-18T21:49:10;6.70;;;5.03;;
64560;SDS011;50960;46.838;16.838;2023-05-18T21:51:37;9.60;;;4.88;;
64560;SDS011;50960;46.838;16.838;2023-05-18T21:54:03;7.20;;;4.90;;
64560;SDS011;50960;46.838;16.838;2023-05-18T21:56:29;7.63;;;4.88;;
64560;SDS011;50960;46.838;16.838;2023-05-18T21:58:58;7.88;;;5.25;;
64560;SDS011;50960;46.838;16.838;2023-05-18T22:01:24;7.72;;;4.35;;
64560;SDS011;50960;46.838;16.838;2023-05-18T22:03:51;7.65;;;4.97;;
64560;SDS011;50960;46.838;16.838;2023-05-18T22:06:18;9.10;;;4.72;;
64560;SDS011;50960;46.838;16.838;2023-05-18T22:08:44;6.28;;;4.40;;
64560;SDS011;50960;46.838;16.838;2023-05-18T22:11:12;7.75;;;4.57;;
64560;SDS011;50960;46.838;16.838;2023-05-18T22:13:39;6.40;;;4.82;;
64560;SDS011;50960;46.838;16.838;2023-05-18T22:16:06;6.43;;;4.72;;
64560;SDS011;50960;46.838;16.838;2023-05-18T22:18:35;7.95;;;4.60;;
64560;SDS011;50960;46.838;16.838;2023-05-18T22:21:02;6.88;;;4.53;;
64560;SDS011;50960;46.838;16.838;2023-05-18T22:23:29;7.70;;;4.60;;
64560;SDS011;50960;46.838;16.838;2023-05-18T22:25:55;7.05;;;4.43;;
64560;SDS011;50960;46.838;16.838;2023-05-18T22:28:21;7.72;;;4.43;;
64560;SDS011;50960;46.838;16.838;2023-05-18T22:30:48;5.55;;;4.60;;
64560;SDS011;50960;46.838;16.838;2023-05-18T22:33:15;6.28;;;4.65;;
64560;SDS011;50960;46.838;16.838;2023-05-18T22:35:42;6.93;;;4.75;;
64560;SDS011;50960;46.838;16.838;2023-05-18T22:38:12;9.38;;;4.85;;
64560;SDS011;50960;46.838;16.838;2023-05-18T22:40:39;6.53;;;4.70;;
64560;SDS011;50960;46.838;16.838;2023-05-18T22:43:05;7.68;;;4.70;;
64560;SDS011;50960;46.838;16.838;2023-05-18T22:45:32;7.07;;;4.65;;
64560;SDS011;50960;46.838;16.838;2023-05-18T22:47:59;9.10;;;4.65;;
64560;SDS011;50960;46.838;16.838;2023-05-18T22:50:25;7.70;;;4.50;;
64560;SDS011;50960;46.838;16.838;2023-05-18T22:52:53;6.35;;;4.10;;
64560;SDS011;50960;46.838;16.838;2023-05-18T22:55:20;7.78;;;4.60;;
64560;SDS011;50960;46.838;16.838;2023-05-18T22:57:47;7.68;;;4.55;;
64560;SDS011;50960;46.838;16.838;2023-05-18T23:00:14;7.43;;;4.63;;
64560;SDS011;50960;46.838;16.838;2023-05-18T23:02:42;6.70;;;4.75;;
64560;SDS011;50960;46.838;16.838;2023-05-18T23:05:08;6.60;;;4.57;;
64560;SDS011;50960;46.838;16.838;2023-05-18T23:07:35;6.30;;;4.40;;
